createdAt,value
2018-05-19T00:01:55.422Z,99337.11
2018-05-19T00:04:23.792Z,99333.77
2018-05-19T00:06:52.802Z,99331.45
2018-05-19T00:09:21.301Z,99334.66
2018-05-19T00:11:49.585Z,99332.80
2018-05-19T00:14:17.908Z,99301.95
2018-05-19T00:16:46.213Z,99334.14
2018-05-19T00:19:14.522Z,99335.22
2018-05-19T00:21:42.868Z,99342.12
2018-05-19T00:24:11.171Z,99334.42
2018-05-19T00:26:39.514Z,99337.61
2018-05-19T00:29:07.802Z,99337.23
2018-05-19T00:31:36.106Z,99327.80
2018-05-19T00:34:05.242Z,99282.77
2018-05-19T00:36:33.553Z,99328.31
2018-05-19T00:39:01.863Z,99331.52
2018-05-19T00:41:30.153Z,99329.11
2018-05-19T00:43:58.451Z,99334.31
2018-05-19T00:46:26.753Z,99336.14
2018-05-19T00:48:55.071Z,99332.43
2018-05-19T00:51:23.389Z,99335.88
2018-05-19T00:53:52.199Z,99334.58
2018-05-19T00:56:20.502Z,99339.33
2018-05-19T00:58:48.783Z,99331.78
2018-05-19T01:01:17.076Z,99335.34
2018-05-19T01:03:45.354Z,99327.91
2018-05-19T01:06:13.691Z,99315.56
2018-05-19T01:08:42.104Z,99331.84
2018-05-19T01:11:10.407Z,99323.81
2018-05-19T01:13:38.713Z,99323.28
2018-05-19T01:16:07.025Z,99317.66
2018-05-19T01:18:35.334Z,99321.35
2018-05-19T01:21:03.853Z,99316.20
2018-05-19T01:23:32.195Z,99320.55
2018-05-19T01:26:00.461Z,99319.36
2018-05-19T01:28:28.780Z,99310.23
2018-05-19T01:30:57.108Z,99311.42
2018-05-19T01:33:25.422Z,99306.34
2018-05-19T01:35:54.926Z,99310.53
2018-05-19T01:38:24.679Z,99309.98
2018-05-19T01:40:52.975Z,99311.02
2018-05-19T01:43:21.283Z,99304.55
2018-05-19T01:45:49.571Z,99304.53
2018-05-19T01:48:17.870Z,99301.03
2018-05-19T01:50:46.143Z,99303.56
2018-05-19T01:53:14.466Z,99296.92
2018-05-19T01:55:42.778Z,99302.17
2018-05-19T01:58:11.178Z,99300.49
2018-05-19T02:00:39.461Z,99297.27
2018-05-19T02:03:07.773Z,99293.27
2018-05-19T02:05:36.060Z,99294.70
2018-05-19T02:08:04.976Z,99289.53
2018-05-19T02:10:33.259Z,99289.95
2018-05-19T02:13:01.589Z,99285.91
2018-05-19T02:15:29.873Z,99282.19
2018-05-19T02:17:59.033Z,99279.30
2018-05-19T02:20:28.893Z,99275.59
2018-05-19T02:22:57.226Z,99277.91
2018-05-19T02:25:26.114Z,99260.66
2018-05-19T02:27:54.397Z,99274.37
2018-05-19T02:30:23.010Z,99278.03
2018-05-19T02:32:51.285Z,99275.84
2018-05-19T02:35:19.637Z,99273.73
2018-05-19T02:37:47.958Z,99269.05
2018-05-19T02:40:16.442Z,99269.52
2018-05-19T02:42:45.524Z,99271.55
2018-05-19T02:45:13.812Z,99268.76
2018-05-19T02:47:42.087Z,99269.02
2018-05-19T02:50:10.383Z,99264.08
2018-05-19T02:52:38.658Z,99264.12
2018-05-19T02:55:06.993Z,99266.63
2018-05-19T02:57:35.390Z,99260.27
2018-05-19T03:00:04.075Z,99263.84
2018-05-19T03:02:32.358Z,99258.53
2018-05-19T03:05:00.654Z,99256.63
2018-05-19T03:07:29.446Z,99261.86
2018-05-19T03:09:57.778Z,99258.75
2018-05-19T03:12:26.079Z,99260.58
2018-05-19T03:14:54.467Z,99259.51
2018-05-19T03:17:23.134Z,99261.54
2018-05-19T03:19:51.433Z,99259.48
2018-05-19T03:22:19.706Z,99267.32
2018-05-19T03:24:48.002Z,99260.48
2018-05-19T03:27:16.316Z,99265.17
2018-05-19T03:29:44.609Z,99266.67
2018-05-19T03:32:12.963Z,99263.30
2018-05-19T03:34:41.268Z,99262.34
2018-05-19T03:37:09.951Z,99260.33
2018-05-19T03:39:38.242Z,99263.97
2018-05-19T03:42:06.545Z,99261.84
2018-05-19T03:44:34.914Z,99265.05
2018-05-19T03:47:03.249Z,99259.06
2018-05-19T03:49:31.556Z,99264.02
2018-05-19T03:51:59.881Z,99256.45
2018-05-19T03:54:29.035Z,99264.03
2018-05-19T03:57:09.164Z,99266.12
2018-05-19T03:59:49.116Z,99276.44
2018-05-19T04:02:29.139Z,99272.94
2018-05-19T04:04:57.515Z,99272.22
2018-05-19T04:07:25.808Z,99280.48
2018-05-19T04:09:54.100Z,99286.25
2018-05-19T04:12:22.383Z,99286.51
2018-05-19T04:14:50.734Z,99284.27
2018-05-19T04:17:19.508Z,99284.91
2018-05-19T04:19:47.823Z,99285.31
2018-05-19T04:22:16.124Z,99284.22
2018-05-19T04:24:44.416Z,99294.11
2018-05-19T04:27:12.690Z,99293.94
2018-05-19T04:29:41.025Z,99294.66
2018-05-19T04:32:09.310Z,99295.45
2018-05-19T04:34:37.658Z,99305.29
2018-05-19T04:37:05.958Z,99295.83
2018-05-19T04:39:34.246Z,99300.80
2018-05-19T04:42:02.518Z,99304.33
2018-05-19T04:44:30.911Z,99309.16
2018-05-19T04:46:59.231Z,99302.59
2018-05-19T04:49:27.546Z,99307.75
2018-05-19T04:51:55.821Z,99307.82
2018-05-19T04:54:24.214Z,99302.88
2018-05-19T04:56:52.624Z,99309.12
2018-05-19T04:59:20.941Z,99311.50
2018-05-19T05:01:49.280Z,99314.76
2018-05-19T05:04:17.606Z,99317.88
2018-05-19T05:06:45.914Z,99316.50
2018-05-19T05:09:14.208Z,99314.98
2018-05-19T05:11:42.502Z,99322.27
2018-05-19T06:59:06.944Z,99347.08
2018-05-19T07:01:35.339Z,99350.12
2018-05-19T07:04:04.746Z,99344.05
2018-05-19T07:06:33.050Z,99346.20
2018-05-19T07:09:01.354Z,99345.83
2018-05-19T07:11:29.628Z,99338.21
2018-05-19T07:13:57.970Z,99346.28
2018-05-19T07:16:27.221Z,99328.70
2018-05-19T07:18:55.570Z,99343.35
2018-05-19T07:21:23.899Z,99341.89
2018-05-19T07:23:52.193Z,99346.02
2018-05-19T07:26:20.500Z,99343.65
2018-05-19T07:28:48.766Z,99337.47
2018-05-19T07:31:17.128Z,99343.30
2018-05-19T07:33:45.708Z,99343.72
2018-05-19T07:36:14.016Z,99337.16
2018-05-19T07:38:42.354Z,99343.93
2018-05-19T07:41:10.648Z,99339.00
2018-05-19T07:43:38.970Z,99345.85
2018-05-19T07:46:07.285Z,99345.41
2018-05-19T07:48:35.589Z,99346.25
2018-05-19T07:51:03.889Z,99346.70
2018-05-19T07:53:32.370Z,99340.36
2018-05-19T07:56:00.689Z,99339.53
2018-05-19T07:58:28.986Z,99340.49
2018-05-19T08:00:57.274Z,99342.17
2018-05-19T08:03:25.642Z,99347.00
2018-05-19T08:05:55.328Z,99353.07
2018-05-19T08:08:23.637Z,99350.48
2018-05-19T08:10:51.954Z,99351.89
2018-05-19T08:13:20.284Z,99350.48
2018-05-19T08:15:49.319Z,99353.61
2018-05-19T08:18:18.543Z,99352.37
2018-05-19T08:20:46.848Z,99350.16
2018-05-19T08:23:15.130Z,99354.80
2018-05-19T08:25:43.470Z,99359.55
2018-05-19T08:28:12.590Z,99358.57
2018-05-19T08:30:41.663Z,99351.70
2018-05-19T08:33:09.946Z,99346.50
2018-05-19T08:35:38.755Z,99339.45
2018-05-19T08:38:07.134Z,99346.08
2018-05-19T08:40:35.802Z,99348.55
2018-05-19T08:43:04.072Z,99352.84
2018-05-19T08:45:32.374Z,99349.64
2018-05-19T08:48:00.678Z,99353.45
2018-05-19T08:50:29.105Z,99352.16
2018-05-19T08:52:57.325Z,99353.27
2018-05-19T08:55:25.643Z,99356.45
2018-05-19T08:57:53.950Z,99345.98
2018-05-19T09:00:22.251Z,99359.16
2018-05-19T09:02:50.737Z,99355.13
2018-05-19T09:05:19.002Z,99355.38
2018-05-19T09:07:47.471Z,99350.86
2018-05-19T09:10:15.759Z,99336.16
2018-05-19T09:12:44.085Z,99355.45
2018-05-19T09:15:12.354Z,99343.68
2018-05-19T09:17:40.687Z,99345.14
2018-05-19T09:20:09.009Z,99351.53
2018-05-19T09:22:37.334Z,99352.16
2018-05-19T09:25:05.611Z,99358.92
2018-05-19T09:27:33.905Z,99355.19
2018-05-19T09:30:02.196Z,99354.82
2018-05-19T09:32:30.719Z,99356.19
2018-05-19T09:34:59.025Z,99356.74
2018-05-19T09:37:27.317Z,99357.31
2018-05-19T09:39:55.622Z,99354.91
2018-05-19T09:42:23.961Z,99350.64
2018-05-19T09:44:52.231Z,99357.56
2018-05-19T09:47:20.534Z,99360.04
2018-05-19T09:49:48.817Z,99359.14
2018-05-19T09:52:17.203Z,99360.48
2018-05-19T09:54:45.831Z,99366.53
2018-05-19T09:57:15.046Z,99364.10
2018-05-19T09:59:44.253Z,99372.44
2018-05-19T10:02:12.526Z,99368.55
2018-05-19T10:04:40.830Z,99373.77
2018-05-19T10:07:09.106Z,99355.77
2018-05-19T10:09:37.399Z,99368.83
2018-05-19T10:12:05.733Z,99354.91
2018-05-19T10:14:34.250Z,99360.92
2018-05-19T10:17:03.158Z,99366.48
2018-05-19T10:19:31.582Z,99368.56
2018-05-19T10:21:59.894Z,99368.33
2018-05-19T10:24:28.152Z,99362.28
2018-05-19T10:26:56.458Z,99349.38
2018-05-19T10:29:24.766Z,99356.05
2018-05-19T10:31:53.031Z,99355.59
2018-05-19T10:34:21.337Z,99351.73
2018-05-19T10:36:49.650Z,99357.77
2018-05-19T10:39:17.916Z,99348.27
2018-05-19T10:41:46.228Z,99353.06
2018-05-19T10:44:14.942Z,99354.70
2018-05-19T10:46:43.263Z,99350.00
2018-05-19T10:49:11.765Z,99343.63
2018-05-19T10:51:40.084Z,99337.90
2018-05-19T10:54:08.986Z,99340.86
2018-05-19T10:56:38.138Z,99343.59
2018-05-19T10:59:07.107Z,99340.11
2018-05-19T11:01:35.406Z,99345.80
2018-05-19T11:04:03.717Z,99341.19
2018-05-19T11:06:32.412Z,99336.06
2018-05-19T11:09:00.704Z,99338.31
2018-05-19T11:11:29.042Z,99335.34
2018-05-19T11:13:57.239Z,99340.91
2018-05-19T11:16:25.566Z,99338.83
2018-05-19T11:18:53.852Z,99333.62
2018-05-19T11:21:22.255Z,99336.94
2018-05-19T11:23:50.645Z,99339.05
2018-05-19T11:26:18.913Z,99341.46
2018-05-19T11:28:47.191Z,99338.16
2018-05-19T11:31:16.293Z,99334.56
2018-05-19T11:33:44.712Z,99334.71
2018-05-19T11:36:13.327Z,99326.15
2018-05-19T11:38:41.641Z,99330.48
2018-05-19T11:41:09.910Z,99336.43
2018-05-19T11:43:38.390Z,99319.69
2018-05-19T11:46:07.540Z,99323.73
2018-05-19T11:48:35.826Z,99325.98
2018-05-19T11:51:04.106Z,99318.94
2018-05-19T11:53:32.897Z,99318.83
2018-05-19T11:56:01.158Z,99312.12
2018-05-19T11:58:30.322Z,99316.51
2018-05-19T12:00:58.578Z,99317.67
2018-05-19T12:03:26.893Z,99308.61
2018-05-19T12:05:55.439Z,99319.48
2018-05-19T12:08:24.522Z,99310.70
2018-05-19T12:10:52.969Z,99317.22
2018-05-19T12:13:21.243Z,99312.20
2018-05-19T12:15:49.543Z,99308.19
2018-05-19T12:18:17.845Z,99315.10
2018-05-19T12:20:46.138Z,99304.77
2018-05-19T12:23:14.691Z,99303.03
2018-05-19T12:25:42.983Z,99307.88
2018-05-19T12:28:11.247Z,99296.50
2018-05-19T12:30:39.543Z,99289.68
2018-05-19T12:33:07.802Z,99294.16
2018-05-19T12:35:37.191Z,99291.69
2018-05-19T12:38:05.476Z,99282.25
2018-05-19T12:40:34.444Z,99283.52
2018-05-19T12:43:02.702Z,99280.11
2018-05-19T12:45:31.031Z,99265.64
2018-05-19T12:47:59.371Z,99274.28
2018-05-19T12:50:27.684Z,99274.28
2018-05-19T12:52:55.938Z,99275.88
2018-05-19T12:55:24.225Z,99266.47
2018-05-19T12:57:52.484Z,99269.59
2018-05-19T13:00:20.779Z,99260.59
2018-05-19T13:02:49.071Z,99248.36
2018-05-19T13:05:17.374Z,99257.86
2018-05-19T13:07:45.631Z,99259.25
2018-05-19T13:10:13.976Z,99259.57
2018-05-19T13:12:42.456Z,99261.42
2018-05-19T13:15:10.806Z,99264.36
2018-05-19T13:17:39.097Z,99259.66
2018-05-19T13:20:07.362Z,99262.19
2018-05-19T13:22:35.650Z,99264.00
2018-05-19T13:25:04.746Z,99266.64
2018-05-19T13:27:33.012Z,99261.61
2018-05-19T13:30:01.285Z,99255.82
2018-05-19T13:32:29.595Z,99257.23
2018-05-19T13:34:57.885Z,99258.86
2018-05-19T13:37:27.108Z,99255.67
2018-05-19T13:39:55.362Z,99250.45
2018-05-19T13:42:23.649Z,99245.96
2018-05-19T13:44:51.915Z,99236.89
2018-05-19T13:47:21.279Z,99240.06
2018-05-19T13:49:49.560Z,99238.05
2018-05-19T13:52:17.852Z,99245.22
2018-05-19T13:54:46.911Z,99237.48
2018-05-19T13:57:15.261Z,99248.74
2018-05-19T13:59:43.581Z,99245.76
2018-05-19T14:02:11.922Z,99247.61
2018-05-19T14:04:40.296Z,99234.88
2018-05-19T14:07:08.525Z,99236.13
2018-05-19T14:09:36.878Z,99237.05
2018-05-19T14:12:05.241Z,99228.20
2018-05-19T14:14:33.465Z,99240.19
2018-05-19T14:17:02.708Z,99242.90
2018-05-19T14:19:31.015Z,99234.34
2018-05-19T14:21:59.297Z,99234.16
2018-05-19T14:24:28.309Z,99227.72
2018-05-19T14:26:56.569Z,99234.93
2018-05-19T14:29:24.860Z,99231.29
2018-05-19T14:31:53.126Z,99227.27
2018-05-19T14:34:21.434Z,99229.45
2018-05-19T14:36:49.707Z,99233.55
2018-05-19T14:39:17.994Z,99235.30
2018-05-19T14:41:46.245Z,99220.28
2018-05-19T14:44:14.894Z,99228.31
2018-05-19T14:46:43.220Z,99234.33
2018-05-19T14:49:11.484Z,99226.89
2018-05-19T14:51:39.771Z,99224.11
2018-05-19T14:54:08.025Z,99227.64
2018-05-19T14:56:36.347Z,99231.33
2018-05-19T14:59:05.110Z,99224.97
2018-05-19T15:01:33.410Z,99223.22
2018-05-19T15:04:01.772Z,99231.86
2018-05-19T15:06:30.078Z,99221.56
2018-05-19T15:08:58.369Z,99225.75
2018-05-19T15:11:26.647Z,99223.96
2018-05-19T15:13:54.958Z,99223.22
2018-05-19T15:16:23.255Z,99231.29
2018-05-19T15:18:51.533Z,99221.73
2018-05-19T15:21:20.190Z,99226.34
2018-05-19T15:23:48.473Z,99230.05
2018-05-19T15:26:16.750Z,99228.05
2018-05-19T15:28:45.019Z,99231.69
2018-05-19T15:31:13.439Z,99241.00
2018-05-19T15:33:41.722Z,99232.94
2018-05-19T15:36:09.993Z,99229.71
2018-05-19T15:38:38.328Z,99228.33
2018-05-19T15:41:07.308Z,99227.62
2018-05-19T15:43:35.621Z,99234.33
2018-05-19T15:46:03.999Z,99238.11
2018-05-19T15:48:32.303Z,99221.38
2018-05-19T15:51:00.574Z,99235.53
2018-05-19T15:53:29.616Z,99224.95
2018-05-19T15:55:58.279Z,99225.40
2018-05-19T15:58:26.586Z,99228.41
2018-05-19T16:00:54.854Z,99221.42
2018-05-19T16:03:23.163Z,99221.11
2018-05-19T16:05:51.453Z,99230.28
2018-05-19T16:08:19.751Z,99226.34
2018-05-19T16:10:48.026Z,99218.78
2018-05-19T16:13:16.314Z,99221.08
2018-05-19T16:15:44.582Z,99222.05
2018-05-19T16:18:13.230Z,99222.17
2018-05-19T16:20:41.525Z,99221.30
2018-05-19T16:23:09.823Z,99218.11
2018-05-19T16:25:38.066Z,99212.20
2018-05-19T16:28:06.847Z,99211.59
2018-05-19T16:30:35.773Z,99209.62
2018-05-19T16:33:04.053Z,99206.98
2018-05-19T16:35:32.335Z,99209.81
2018-05-19T16:38:00.630Z,99193.41
2018-05-19T16:40:28.924Z,99197.69
2018-05-19T16:42:57.185Z,99194.64
2018-05-19T16:45:25.498Z,99196.37
2018-05-19T16:47:53.802Z,99198.38
2018-05-19T16:50:22.836Z,99197.23
2018-05-19T16:52:51.087Z,99200.08
2018-05-19T16:55:19.434Z,99193.43
2018-05-19T16:57:48.484Z,99204.20
2018-05-19T17:00:16.848Z,99200.58
2018-05-19T17:02:45.034Z,99204.14
2018-05-19T17:05:13.380Z,99200.73
2018-05-19T17:07:41.673Z,99193.16
2018-05-19T17:10:10.874Z,99195.11
2018-05-19T17:12:39.152Z,99198.93
2018-05-19T17:15:07.747Z,99197.72
2018-05-19T17:17:35.994Z,99192.55
2018-05-19T17:20:04.349Z,99195.78
2018-05-19T17:22:33.194Z,99198.91
2018-05-19T17:25:01.474Z,99204.95
2018-05-19T17:27:29.771Z,99200.83
2018-05-19T17:29:58.025Z,99201.19
2018-05-19T17:32:26.339Z,99204.59
2018-05-19T17:34:54.609Z,99198.24
2018-05-19T17:37:23.202Z,99192.70
2018-05-19T17:39:51.460Z,99204.64
2018-05-19T17:42:19.738Z,99198.09
2018-05-19T17:44:47.999Z,99198.16
2018-05-19T17:47:16.303Z,99201.33
2018-05-19T17:49:44.554Z,99194.09
2018-05-19T17:52:12.884Z,99195.47
2018-05-19T17:54:41.162Z,99197.86
2018-05-19T17:57:09.503Z,99187.87
2018-05-19T17:59:37.746Z,99205.38
2018-05-19T18:02:06.523Z,99208.92
2018-05-19T18:04:34.793Z,99209.89
2018-05-19T18:07:03.101Z,99210.55
2018-05-19T18:09:31.347Z,99212.82
2018-05-19T18:11:59.770Z,99217.27
2018-05-19T18:14:28.028Z,99218.16
2018-05-19T18:16:56.358Z,99218.61
2018-05-19T18:19:24.629Z,99217.69
2018-05-19T18:21:53.706Z,99217.72
2018-05-19T18:24:22.016Z,99224.16
2018-05-19T18:26:50.675Z,99229.28
2018-05-19T18:29:19.764Z,99229.59
2018-05-19T18:31:48.060Z,99237.18
2018-05-19T18:34:16.356Z,99236.14
2018-05-19T18:36:44.613Z,99235.72
2018-05-19T18:39:12.907Z,99240.00
2018-05-19T18:41:41.159Z,99234.54
2018-05-19T18:44:09.462Z,99230.84
2018-05-19T18:46:37.905Z,99234.94
2018-05-19T18:49:06.168Z,99235.67
2018-05-19T18:51:34.462Z,99236.19
2018-05-19T18:54:02.836Z,99239.64
2018-05-19T18:56:31.098Z,99242.88
2018-05-19T18:59:00.310Z,99243.59
2018-05-19T19:01:29.358Z,99246.34
2018-05-19T19:03:57.666Z,99245.73
2018-05-19T19:06:25.928Z,99247.67
2018-05-19T19:08:54.217Z,99252.28
2018-05-19T19:11:22.551Z,99253.63
2018-05-19T19:13:50.778Z,99255.80
2018-05-19T19:16:19.070Z,99255.05
2018-05-19T19:18:47.333Z,99264.01
2018-05-19T19:21:15.605Z,99262.09
2018-05-19T19:23:44.645Z,99266.23
2018-05-19T19:26:12.940Z,99271.87
2018-05-19T19:28:41.210Z,99263.66
2018-05-19T19:31:09.519Z,99278.90
2018-05-19T19:33:37.814Z,99281.28
2018-05-19T19:36:06.093Z,99284.98
2018-05-19T19:38:34.855Z,99284.41
2018-05-19T19:41:03.107Z,99287.97
2018-05-19T19:43:31.428Z,99292.63
2018-05-19T19:46:00.247Z,99292.97
2018-05-19T19:48:28.505Z,99300.62
2018-05-19T19:50:56.767Z,99303.70
2018-05-19T19:53:25.051Z,99302.38
2018-05-19T19:55:53.328Z,99306.34
2018-05-19T19:58:21.665Z,99308.73
2018-05-19T20:00:49.916Z,99307.68
2018-05-19T20:03:18.217Z,99315.32
2018-05-19T20:05:46.510Z,99320.19
2018-05-19T20:08:14.809Z,99323.44
2018-05-19T20:10:43.077Z,99327.82
2018-05-19T20:13:11.756Z,99323.48
2018-05-19T20:15:43.059Z,99331.29
2018-05-19T20:18:11.371Z,99340.22
2018-05-19T20:20:39.624Z,99348.23
2018-05-19T20:23:09.273Z,99344.52
2018-05-19T20:25:39.678Z,99342.42
2018-05-19T20:28:07.962Z,99339.67
2018-05-19T20:30:36.237Z,99340.39
2018-05-19T20:33:04.552Z,99331.74
2018-05-19T20:35:32.898Z,99344.39
2018-05-19T20:38:01.286Z,99343.80
2018-05-19T20:40:29.704Z,99342.31
2018-05-19T20:42:58.072Z,99342.41
2018-05-19T20:45:26.425Z,99343.09
2018-05-19T20:47:54.690Z,99333.27
2018-05-19T20:50:23.052Z,99342.13
2018-05-19T20:52:51.337Z,99342.00
2018-05-19T20:55:19.618Z,99340.40
2018-05-19T20:57:48.043Z,99339.82
2018-05-19T21:00:16.390Z,99333.50
2018-05-19T21:02:44.641Z,99330.03
2018-05-19T21:05:12.939Z,99334.92
2018-05-19T21:07:41.271Z,99335.27
2018-05-19T21:10:09.983Z,99339.63
2018-05-19T21:12:38.298Z,99337.77
2018-05-19T21:15:06.616Z,99340.53
2018-05-19T21:17:35.382Z,99343.91
2018-05-19T21:20:03.815Z,99351.23
2018-05-19T21:22:32.131Z,99355.89
2018-05-19T21:25:00.487Z,99355.44
2018-05-19T21:27:28.870Z,99355.23
2018-05-19T21:29:57.274Z,99353.94
2018-05-19T21:32:25.918Z,99356.98
2018-05-19T21:34:54.232Z,99357.91
2018-05-19T21:37:24.206Z,99353.58
2018-05-19T21:39:52.895Z,99353.06
2018-05-19T21:42:21.174Z,99358.06
2018-05-19T21:44:49.496Z,99350.56
2018-05-19T21:47:17.850Z,99355.59
2018-05-19T21:49:46.649Z,99353.98
2018-05-19T21:52:15.749Z,99355.56
2018-05-19T21:54:44.068Z,99354.25
2018-05-19T21:57:12.456Z,99352.48
2018-05-19T21:59:41.657Z,99353.34
2018-05-19T22:02:10.119Z,99352.41
2018-05-19T22:04:38.374Z,99346.88
2018-05-19T22:07:06.675Z,99349.59
2018-05-19T22:09:40.006Z,99355.23
2018-05-19T22:12:08.334Z,99358.25
2018-05-19T22:14:36.601Z,99355.41
2018-05-19T22:17:04.895Z,99355.48
2018-05-19T22:19:33.164Z,99348.12
2018-05-19T22:22:01.453Z,99351.09
2018-05-19T22:24:29.899Z,99350.37
2018-05-19T22:26:58.207Z,99353.52
2018-05-19T22:29:26.459Z,99351.88
2018-05-19T22:31:54.809Z,99354.06
2018-05-19T22:34:23.099Z,99348.73
2018-05-19T22:36:51.370Z,99352.71
2018-05-19T22:39:19.688Z,99350.60
2018-05-19T22:41:48.237Z,99342.88
2018-05-19T22:44:16.487Z,99347.72
2018-05-19T22:46:44.990Z,99347.94
2018-05-19T22:49:14.278Z,99343.73
2018-05-19T22:51:46.156Z,99343.98
2018-05-19T22:54:14.737Z,99345.45
2018-05-19T22:56:43.228Z,99337.55
2018-05-19T22:59:11.521Z,99336.84
2018-05-19T23:01:39.834Z,99343.30
2018-05-19T23:04:08.174Z,99340.90
2018-05-19T23:06:36.433Z,99337.56
2018-05-19T23:09:04.771Z,99347.09
2018-05-19T23:11:33.112Z,99359.64
2018-05-19T23:14:01.361Z,99357.84
2018-05-19T23:16:29.658Z,99345.41
2018-05-19T23:18:58.031Z,99346.71
2018-05-19T23:21:26.345Z,99346.11
2018-05-19T23:23:54.614Z,99348.84
2018-05-19T23:26:23.295Z,99348.86
2018-05-19T23:28:51.562Z,99348.84
2018-05-19T23:31:19.867Z,99348.56
2018-05-19T23:33:48.129Z,99352.30
2018-05-19T23:36:16.414Z,99349.47
2018-05-19T23:38:44.680Z,99349.34
2018-05-19T23:41:12.972Z,99351.72
2018-05-19T23:43:42.032Z,99355.73
2018-05-19T23:46:10.408Z,99361.14
2018-05-19T23:48:38.653Z,99359.34
2018-05-19T23:51:06.981Z,99356.89
2018-05-19T23:53:35.269Z,99360.98
2018-05-19T23:56:03.541Z,99359.19
2018-05-19T23:58:31.832Z,99350.31
